Observations for Trim Market St
| Time | AQI | Temp °C | Hum % | Pres Pa | CO μg/m³ | H₂S μg/m³ | NO μg/m³ | NO₂ μg/m³ | O₃ μg/m³ | SO₂ μg/m³ | PM1 μg/m³ | PM2.5 μg/m³ | PM10 μg/m³ |
|---|---|---|---|---|---|---|---|---|---|---|---|---|---|
| Thursday 9 July 2026 | |||||||||||||
| 14:41 | 1 | 42.2 | 24 | 67,251 | 0 | 0 | 0 | 12.25 | 24.8 | 4.71 | 0 | 3.56 | 3.91 |
| 14:39 | 1 | 42.1 | 25 | 67,226 | 0 | 0 | 0 | 25.46 | 0 | 3.4 | 0.71 | 3.52 | 3.87 |
| 14:38 | 1 | 42.1 | 25 | 67,196 | 0 | 0 | 0 | 0 | 25.32 | 8.1 | 0.71 | 3.51 | 3.86 |
| 14:37 | 1 | 42 | 26 | 67,214 | 0 | 0 | 0 | 2.61 | 49.49 | 5.93 | 0.71 | 3.49 | 3.83 |
| 14:36 | 1 | 42 | 25 | 67,210 | 0 | 0 | 0 | 0 | 0 | 7.84 | 0.71 | 4.07 | 4.48 |
| 14:31 | 1 | 41.8 | 25 | 67,183 | 0 | 0 | 0 | 0 | 9.15 | 7.1 | 0.71 | 3.54 | 3.89 |
| 14:29 | 1 | 41.7 | 25 | 67,157 | 0 | 0 | 0 | 0 | 28.23 | 7.5 | 0.71 | 4.09 | 4.5 |
| 14:28 | 1 | 41.7 | 25 | 67,159 | 0 | 0 | 0 | 0 | 47.95 | 8 | 0 | 2.97 | 3.27 |
| 14:23 | 1 | 41.6 | 25 | 67,167 | 0 | 0 | 0 | 1.89 | 27 | 5.78 | 0 | 3.52 | 3.87 |
| 14:18 | 1 | 41.5 | 25 | 67,155 | 0 | 0 | 0 | 0 | 46.17 | 6.1 | 0 | 2.97 | 3.27 |
| 14:17 | 1 | 41.6 | 25 | 67,139 | 0 | 0 | 0 | 0 | 30.78 | 7.26 | 0 | 2.99 | 3.29 |
| 14:16 | 1 | 41.6 | 25 | 67,153 | 0 | 0 | 0 | 0 | 44.43 | 5.66 | 0 | 3.53 | 3.89 |
| 14:15 | 1 | 41.7 | 25 | 67,135 | 0 | 0 | 0 | 0 | 28.08 | 8.77 | 0 | 2.97 | 3.27 |
| 14:14 | 1 | 41.7 | 25 | 67,143 | 0 | 0 | 0 | 0 | 24.12 | 5.4 | 0 | 2.97 | 3.27 |
| 14:13 | 1 | 41.7 | 25 | 67,149 | 0 | 0 | 0 | 0 | 48.59 | 5.26 | 0.71 | 4.07 | 4.47 |
| 14:12 | 1 | 41.7 | 25 | 67,157 | 0 | 0 | 0 | 0 | 45.53 | 6.88 | 0 | 2.98 | 3.28 |
| 14:11 | 1 | 41.7 | 25 | 67,173 | 0 | 0 | 0 | 0 | 30.6 | 6.07 | 0 | 2.98 | 3.28 |
| 14:10 | 1 | 41.7 | 25 | 67,189 | 0 | 0 | 0 | 0 | 24.6 | 6.65 | 0 | 2.98 | 3.28 |
| 14:09 | 1 | 41.7 | 26 | 67,185 | 0 | 0 | 0 | 0 | 31.44 | 7.08 | 0.71 | 4.05 | 4.46 |
| 14:08 | 1 | 41.6 | 26 | 67,147 | 0 | 0 | 0 | 0 | 31.51 | 6.21 | 0 | 3.5 | 3.85 |